createdAt,value
2019-04-10T00:04:35.675Z,101064.31
2019-04-10T00:09:59.304Z,101071.33
2019-04-10T00:15:24.326Z,101072.73
2019-04-10T00:20:49.120Z,101070.08
2019-04-10T00:26:13.908Z,101072.66
2019-04-10T00:31:38.162Z,101065.31
2019-04-10T00:37:02.395Z,101070.39
2019-04-10T00:42:27.568Z,101058.86
2019-04-10T00:47:51.192Z,101071.84
2019-04-10T00:53:16.908Z,101070.94
2019-04-10T00:58:41.523Z,101072.34
2019-04-10T01:04:06.854Z,101075.77
2019-04-10T01:09:31.154Z,101076.12
2019-04-10T01:14:54.479Z,101076.56
2019-04-10T01:20:19.606Z,101065.95
2019-04-10T01:25:43.183Z,101073.57
2019-04-10T01:31:07.692Z,101076.66
2019-04-10T01:36:31.844Z,101071.34
2019-04-10T01:41:56.475Z,101067.09
2019-04-10T01:47:21.344Z,101075.52
2019-04-10T01:52:47.060Z,101077.37
2019-04-10T01:58:17.574Z,101077.16
2019-04-10T02:03:42.436Z,101085.42
2019-04-10T02:09:10.960Z,101075.69
2019-04-10T02:14:36.351Z,101080.48
2019-04-10T02:20:00.928Z,101075.69
2019-04-10T02:25:25.368Z,101079.73
2019-04-10T02:30:50.185Z,101082.97
2019-04-10T02:36:14.607Z,101072.70
2019-04-10T02:41:38.793Z,101073.05
2019-04-10T02:47:04.199Z,101066.84
2019-04-10T02:52:28.603Z,101064.87
2019-04-10T02:57:54.269Z,101081.64
2019-04-10T03:03:20.089Z,101076.55
2019-04-10T03:09:05.917Z,101074.58
2019-04-10T03:14:10.620Z,101075.88
2019-04-10T03:19:34.128Z,101075.52
2019-04-10T03:24:58.495Z,101085.41
2019-04-10T03:30:23.655Z,101083.62
2019-04-10T03:35:51.472Z,101081.84
2019-04-10T03:41:15.962Z,101081.41
2019-04-10T03:46:40.311Z,101078.33
2019-04-10T03:52:05.141Z,101079.23
2019-04-10T03:57:29.596Z,101081.44
2019-04-10T04:02:53.868Z,101082.03
2019-04-10T04:08:17.916Z,101079.96
2019-04-10T04:13:42.143Z,101086.91
2019-04-10T04:19:06.003Z,101081.05
2019-04-10T04:24:30.171Z,101097.08
2019-04-10T04:29:54.139Z,101091.97
2019-04-10T04:35:18.634Z,101097.43
2019-04-10T04:40:44.250Z,101096.34
2019-04-10T04:46:08.139Z,101089.79
2019-04-10T04:51:33.055Z,101091.70
2019-04-10T04:56:56.728Z,101097.05
2019-04-10T05:02:20.243Z,101100.92
2019-04-10T05:07:55.544Z,101104.80
2019-04-10T05:13:10.355Z,101108.06
2019-04-10T05:18:35.107Z,101114.86
2019-04-10T05:23:59.653Z,101114.73
2019-04-10T05:29:24.971Z,101127.16
2019-04-10T05:34:50.381Z,101124.25
2019-04-10T05:40:13.891Z,101127.92
2019-04-10T05:45:38.383Z,101133.13
2019-04-10T05:51:05.645Z,101136.67
2019-04-10T05:56:28.583Z,101137.02
2019-04-10T06:01:52.739Z,101135.88
2019-04-10T06:07:17.027Z,101143.31
2019-04-10T06:12:40.920Z,101147.94
2019-04-10T06:18:05.039Z,101148.00
2019-04-10T06:23:29.653Z,101151.55
2019-04-10T06:28:54.740Z,101142.25
2019-04-10T06:34:20.473Z,101149.45
2019-04-10T06:39:44.995Z,101153.44
2019-04-10T06:45:11.429Z,101148.28
2019-04-10T06:50:37.044Z,101153.09
2019-04-10T06:56:01.455Z,101145.95
2019-04-10T07:01:33.619Z,101147.41
2019-04-10T07:06:59.755Z,101149.81
2019-04-10T07:12:16.458Z,101157.91
2019-04-10T07:17:41.888Z,101161.34
2019-04-10T07:23:06.988Z,101166.38
2019-04-10T07:28:30.418Z,101160.42
2019-04-10T07:33:54.915Z,101167.28
2019-04-10T07:39:18.513Z,101179.11
2019-04-10T07:44:43.027Z,101178.93
2019-04-10T07:50:08.799Z,101182.41
2019-04-10T07:55:33.164Z,101187.48
2019-04-10T08:00:57.324Z,101186.67
2019-04-10T08:06:22.054Z,101195.02
2019-04-10T08:11:47.129Z,101195.96
2019-04-10T08:17:10.530Z,101198.16
2019-04-10T08:22:35.032Z,101196.55
2019-04-10T08:27:58.604Z,101201.11
2019-04-10T08:33:21.986Z,101203.46
2019-04-10T08:38:46.699Z,101207.44
2019-04-10T08:44:10.758Z,101208.55
2019-04-10T08:49:34.769Z,101208.76
2019-04-10T08:54:59.611Z,101210.48
2019-04-10T09:00:24.799Z,101206.27
2019-04-10T09:05:49.072Z,101194.52
2019-04-10T09:11:12.843Z,101195.41
2019-04-10T09:16:38.434Z,101187.63
2019-04-10T09:22:03.854Z,101184.20
2019-04-10T09:27:28.964Z,101178.09
2019-04-10T09:32:52.844Z,101171.77
2019-04-10T09:38:16.795Z,101173.31
2019-04-10T09:43:40.126Z,101167.36
2019-04-10T09:49:05.428Z,101167.39
2019-04-10T09:54:28.770Z,101170.06
2019-04-10T09:59:52.898Z,101164.66
2019-04-10T10:05:18.181Z,101162.00
2019-04-10T10:10:42.666Z,101157.22
2019-04-10T10:16:06.522Z,101174.82
2019-04-10T10:21:30.580Z,101181.66
2019-04-10T10:26:55.631Z,101187.16
2019-04-10T10:32:19.227Z,101181.64
2019-04-10T10:37:42.899Z,101172.28
2019-04-10T10:43:06.461Z,101185.09
2019-04-10T10:48:31.563Z,101181.95
2019-04-10T10:53:56.660Z,101178.70
2019-04-10T10:59:21.828Z,101174.44
2019-04-10T11:04:45.402Z,101157.98
2019-04-10T11:10:09.812Z,101172.06
2019-04-10T11:15:34.185Z,101154.30
2019-04-10T11:21:04.097Z,101161.27
2019-04-10T11:26:25.575Z,101160.82
2019-04-10T11:31:50.121Z,101159.28
2019-04-10T11:37:24.189Z,101158.94
2019-04-10T11:42:39.921Z,101162.47
2019-04-10T11:48:05.865Z,101154.55
2019-04-10T11:53:32.693Z,101159.77
2019-04-10T11:58:57.599Z,101159.89
2019-04-10T12:04:23.247Z,101157.27
2019-04-10T12:15:12.327Z,101157.22
2019-04-10T12:20:37.497Z,101161.81
2019-04-10T12:26:01.697Z,101156.89
2019-04-10T12:31:26.079Z,101155.34
2019-04-10T12:36:51.795Z,101154.89
2019-04-10T12:42:16.492Z,101162.36
2019-04-10T12:47:41.978Z,101157.28
2019-04-10T12:53:07.422Z,101170.66
2019-04-10T12:58:30.971Z,101168.48
2019-04-10T13:03:55.733Z,101153.42
2019-04-10T13:09:20.117Z,101145.95
2019-04-10T13:14:44.280Z,101155.27
2019-04-10T13:20:10.582Z,101149.84
2019-04-10T13:25:34.510Z,101154.75
2019-04-10T13:30:59.595Z,101170.80
2019-04-10T13:36:23.859Z,101174.69
2019-04-10T13:41:48.417Z,101154.74
2019-04-10T13:47:13.390Z,101150.58
2019-04-10T13:52:40.465Z,101166.42
2019-04-10T13:58:04.160Z,101168.03
2019-04-10T14:03:30.149Z,101172.51
2019-04-10T14:09:08.182Z,101165.64
2019-04-10T14:14:20.366Z,101159.84
2019-04-10T14:19:45.699Z,101178.95
2019-04-10T14:25:19.778Z,101190.84
2019-04-10T14:30:43.683Z,101186.98
2019-04-10T14:36:08.138Z,101180.88
2019-04-10T14:41:32.306Z,101185.28
2019-04-10T14:46:56.335Z,101192.94
2019-04-10T14:52:21.802Z,101202.63
2019-04-10T14:57:47.317Z,101197.49
2019-04-10T15:03:11.922Z,101196.84
2019-04-10T15:08:36.260Z,101203.14
2019-04-10T15:14:01.299Z,101207.72
2019-04-10T15:19:26.882Z,101203.03
2019-04-10T15:24:51.876Z,101212.64
2019-04-10T15:30:16.643Z,101218.47
2019-04-10T15:35:41.555Z,101219.44
2019-04-10T15:41:06.440Z,101219.81
2019-04-10T15:46:30.406Z,101221.71
2019-04-10T15:51:55.224Z,101229.61
2019-04-10T15:57:22.837Z,101220.90
2019-04-10T16:02:46.904Z,101233.90
2019-04-10T16:08:12.149Z,101232.35
2019-04-10T16:13:41.375Z,101234.15
2019-04-10T16:19:15.106Z,101232.84
2019-04-10T16:24:38.858Z,101240.78
2019-04-10T16:30:03.756Z,101242.93
2019-04-10T16:35:27.467Z,101245.26
2019-04-10T16:40:52.079Z,101247.43
2019-04-10T16:46:17.314Z,101247.25
2019-04-10T16:51:41.115Z,101245.98
2019-04-10T16:57:05.343Z,101245.73
2019-04-10T17:02:29.877Z,101246.28
2019-04-10T17:07:53.333Z,101259.58
2019-04-10T17:13:18.300Z,101264.00
2019-04-10T17:18:43.427Z,101263.46
2019-04-10T17:24:09.189Z,101262.73
2019-04-10T17:29:33.444Z,101266.29
2019-04-10T17:34:57.214Z,101276.27
2019-04-10T17:40:30.659Z,101281.78
2019-04-10T17:45:46.915Z,101286.42
2019-04-10T17:51:12.121Z,101297.98
2019-04-10T17:56:36.151Z,101300.90
2019-04-10T18:02:02.212Z,101310.70
2019-04-10T18:07:26.042Z,101313.78
2019-04-10T18:12:50.395Z,101321.36
2019-04-10T18:18:15.761Z,101326.52
2019-04-10T18:23:40.386Z,101340.86
2019-04-10T18:29:05.966Z,101357.56
2019-04-10T18:34:29.628Z,101370.06
2019-04-10T18:39:53.266Z,101375.10
2019-04-10T18:45:17.607Z,101379.45
2019-04-10T18:50:41.890Z,101379.87
2019-04-10T18:56:05.629Z,101386.81
2019-04-10T19:01:43.239Z,101385.64
2019-04-10T19:07:07.057Z,101399.52
2019-04-10T19:12:32.747Z,101401.69
2019-04-10T19:17:57.554Z,101411.49
2019-04-10T19:23:22.723Z,101405.87
2019-04-10T19:28:46.682Z,101408.03
2019-04-10T19:34:10.497Z,101410.97
2019-04-10T19:39:34.650Z,101412.65
2019-04-10T19:44:59.443Z,101409.34
2019-04-10T19:50:25.469Z,101423.68
2019-04-10T19:55:50.143Z,101417.88
2019-04-10T20:01:14.564Z,101421.04
2019-04-10T20:06:39.093Z,101424.23
2019-04-10T20:12:04.338Z,101439.64
2019-04-10T20:17:28.656Z,101438.25
2019-04-10T20:22:52.144Z,101441.56
2019-04-10T20:28:16.829Z,101450.70
2019-04-10T20:33:41.058Z,101445.84
2019-04-10T20:39:07.815Z,101451.38
2019-04-10T20:44:32.616Z,101457.04
2019-04-10T20:49:56.616Z,101460.50
2019-04-10T20:55:20.289Z,101477.34
2019-04-10T21:00:44.984Z,101477.46
2019-04-10T21:06:09.498Z,101490.81
2019-04-10T21:11:33.369Z,101496.91
2019-04-10T21:16:58.214Z,101493.77
2019-04-10T21:22:22.407Z,101502.17
2019-04-10T21:27:49.223Z,101522.56
2019-04-10T21:33:30.233Z,101526.76
2019-04-10T21:38:54.839Z,101538.23
2019-04-10T21:44:19.016Z,101548.20
2019-04-10T21:49:42.601Z,101547.11
2019-04-10T21:55:07.169Z,101551.92
2019-04-10T22:00:51.235Z,101554.98
2019-04-10T22:06:31.626Z,101558.52
2019-04-10T22:11:57.294Z,101560.31
2019-04-10T22:17:22.626Z,101558.45
2019-04-10T22:22:47.113Z,101556.77
2019-04-10T22:28:11.271Z,101563.38
2019-04-10T22:33:34.780Z,101579.59
2019-04-10T22:38:58.951Z,101581.12
2019-04-10T22:44:33.718Z,101583.83
2019-04-10T22:49:48.582Z,101580.41
2019-04-10T22:55:12.302Z,101590.47
2019-04-10T23:00:37.633Z,101584.08
2019-04-10T23:06:02.024Z,101592.07
2019-04-10T23:11:33.435Z,101583.99
2019-04-10T23:16:52.564Z,101596.62
2019-04-10T23:22:16.941Z,101597.10
2019-04-10T23:27:41.947Z,101599.56
2019-04-10T23:33:06.104Z,101597.00
2019-04-10T23:38:29.883Z,101599.23
2019-04-10T23:43:54.191Z,101599.87
2019-04-10T23:49:17.688Z,101604.67
2019-04-10T23:54:42.164Z,101610.53
